createdAt,value
2022-08-24T00:02:36.554Z,4.10
2022-08-24T00:05:25.653Z,4.40
2022-08-24T00:08:14.622Z,3.60
2022-08-24T00:11:03.491Z,3.87
2022-08-24T00:13:52.676Z,3.27
2022-08-24T00:16:41.645Z,4.57
2022-08-24T00:19:32.050Z,4.20
2022-08-24T00:22:21.553Z,4.07
2022-08-24T00:25:11.787Z,4.63
2022-08-24T00:28:01.457Z,4.40
2022-08-24T00:30:50.452Z,4.10
2022-08-24T00:33:40.863Z,4.90
2022-08-24T00:36:31.264Z,5.53
2022-08-24T00:39:21.557Z,4.10
2022-08-24T00:42:11.450Z,4.33
2022-08-24T00:45:00.510Z,4.17
2022-08-24T00:47:51.322Z,3.97
2022-08-24T00:50:41.447Z,4.20
2022-08-24T00:53:38.250Z,4.00
2022-08-24T00:56:28.997Z,4.60
2022-08-24T00:59:20.092Z,3.77
2022-08-24T01:02:15.136Z,4.40
2022-08-24T01:05:07.091Z,4.10
2022-08-24T01:07:55.963Z,4.50
2022-08-24T01:10:48.743Z,4.30
2022-08-24T01:13:37.623Z,4.07
2022-08-24T01:16:44.465Z,4.60
2022-08-24T01:19:38.386Z,4.60
2022-08-24T01:22:46.454Z,4.93
2022-08-24T01:25:36.989Z,4.63
2022-08-24T01:28:28.471Z,5.20
2022-08-24T01:31:17.432Z,4.70
2022-08-24T01:34:06.890Z,5.23
2022-08-24T01:36:57.239Z,4.87
2022-08-24T01:39:47.978Z,5.60
2022-08-24T01:42:38.429Z,4.50
2022-08-24T01:45:27.424Z,5.80
2022-08-24T01:48:22.834Z,4.33
2022-08-24T01:51:12.383Z,5.70
2022-08-24T01:54:02.826Z,5.30
2022-08-24T01:56:51.922Z,5.57
2022-08-24T01:59:42.318Z,4.50
2022-08-24T02:02:32.465Z,5.90
2022-08-24T02:05:22.175Z,5.00
2022-08-24T02:08:11.261Z,5.77
2022-08-24T02:11:00.192Z,6.67
2022-08-24T02:13:49.032Z,6.00
2022-08-24T02:16:39.956Z,5.50
2022-08-24T02:19:29.982Z,6.30
2022-08-24T02:22:19.725Z,5.93
2022-08-24T02:25:08.887Z,5.43
2022-08-24T02:28:03.358Z,5.63
2022-08-24T02:30:53.496Z,6.17
2022-08-24T02:33:44.001Z,5.33
2022-08-24T02:36:32.882Z,6.20
2022-08-24T02:39:21.937Z,7.70
2022-08-24T02:42:10.850Z,7.20
2022-08-24T02:44:59.723Z,5.10
2022-08-24T02:47:48.577Z,6.37
2022-08-24T02:50:41.335Z,6.60
2022-08-24T02:53:30.231Z,7.33
2022-08-24T02:56:20.799Z,6.83
2022-08-24T02:59:09.656Z,7.07
2022-08-24T03:01:58.779Z,5.70
2022-08-24T03:04:49.536Z,6.10
2022-08-24T03:07:40.011Z,5.90
2022-08-24T03:10:28.920Z,6.23
2022-08-24T03:13:18.293Z,5.93
2022-08-24T03:16:07.855Z,5.70
2022-08-24T03:18:56.787Z,6.07
2022-08-24T03:21:45.662Z,6.27
2022-08-24T03:24:35.914Z,6.37
2022-08-24T03:27:25.300Z,6.37
2022-08-24T03:30:15.351Z,6.63
2022-08-24T03:33:05.658Z,6.13
2022-08-24T03:35:55.282Z,7.40
2022-08-24T03:38:44.160Z,8.10
2022-08-24T03:41:36.634Z,9.13
2022-08-24T03:44:26.117Z,7.43
2022-08-24T03:47:14.978Z,6.50
2022-08-24T03:50:04.126Z,7.87
2022-08-24T03:52:53.189Z,7.40
2022-08-24T03:55:42.044Z,6.90
2022-08-24T03:58:32.738Z,7.77
2022-08-24T04:01:21.621Z,6.37
2022-08-24T04:04:10.540Z,7.50
2022-08-24T04:06:59.421Z,6.97
2022-08-24T04:09:48.370Z,6.33
2022-08-24T04:12:37.231Z,6.50
2022-08-24T04:15:27.474Z,6.67
2022-08-24T04:18:16.380Z,5.50
2022-08-24T04:21:06.071Z,6.10
2022-08-24T04:23:55.182Z,6.20
2022-08-24T04:26:45.998Z,6.80
2022-08-24T04:29:35.877Z,7.43
2022-08-24T04:32:26.086Z,6.53
2022-08-24T04:35:14.962Z,6.70
2022-08-24T04:38:03.895Z,6.77
2022-08-24T04:40:52.776Z,7.13
2022-08-24T04:43:45.004Z,6.47
2022-08-24T04:46:35.270Z,6.17
2022-08-24T04:49:25.870Z,8.40
2022-08-24T04:52:14.937Z,8.03
2022-08-24T04:55:04.067Z,8.03
2022-08-24T04:57:56.394Z,8.37
2022-08-24T05:00:45.674Z,7.73
2022-08-24T05:03:34.576Z,6.23
2022-08-24T05:06:26.249Z,7.53
2022-08-24T05:09:15.292Z,6.90
2022-08-24T05:12:05.716Z,6.93
2022-08-24T05:14:54.755Z,6.30
2022-08-24T05:17:50.983Z,6.63
2022-08-24T05:20:41.905Z,5.90
2022-08-24T05:23:32.107Z,6.60
2022-08-24T05:26:22.773Z,7.40
2022-08-24T05:29:11.687Z,7.10
2022-08-24T05:32:00.774Z,7.90
2022-08-24T05:34:51.229Z,6.93
2022-08-24T05:37:41.216Z,6.20
2022-08-24T05:40:33.288Z,6.20
2022-08-24T05:43:22.461Z,5.87
2022-08-24T05:46:11.418Z,6.70
2022-08-24T05:49:01.145Z,6.17
2022-08-24T05:51:49.987Z,6.30
2022-08-24T05:54:38.829Z,6.63
2022-08-24T05:57:32.566Z,6.73
2022-08-24T06:00:21.436Z,6.23
2022-08-24T06:03:14.666Z,5.10
2022-08-24T06:06:04.591Z,6.90
2022-08-24T06:08:54.996Z,6.17
2022-08-24T06:11:43.992Z,6.47
2022-08-24T06:14:35.910Z,5.80
2022-08-24T06:17:24.935Z,4.93
2022-08-24T06:20:14.123Z,5.33
2022-08-24T06:23:03.376Z,4.90
2022-08-24T06:26:14.689Z,5.07
2022-08-24T06:29:04.752Z,5.20
2022-08-24T06:31:56.236Z,5.80
2022-08-24T06:34:45.258Z,5.47
2022-08-24T06:37:34.227Z,5.27
2022-08-24T06:40:24.624Z,5.30
2022-08-24T06:43:13.705Z,5.53
2022-08-24T06:46:02.706Z,6.30
2022-08-24T06:48:54.060Z,5.37
2022-08-24T06:52:02.213Z,5.50
2022-08-24T06:54:51.073Z,4.83
2022-08-24T06:57:39.934Z,5.87
2022-08-24T07:00:28.828Z,5.10
2022-08-24T07:03:18.796Z,4.93
2022-08-24T07:06:16.227Z,4.43
2022-08-24T07:09:05.347Z,4.17
2022-08-24T07:11:54.590Z,4.87
2022-08-24T07:14:43.451Z,5.07
2022-08-24T07:17:32.323Z,4.43
2022-08-24T07:20:21.427Z,5.25
2022-08-24T07:23:13.007Z,4.40
2022-08-24T07:26:08.198Z,5.32
2022-08-24T07:29:01.112Z,4.68
2022-08-24T07:31:50.191Z,5.05
2022-08-24T07:34:39.150Z,4.72
2022-08-24T07:37:40.745Z,4.97
2022-08-24T07:40:36.482Z,4.43
2022-08-24T07:43:39.589Z,5.05
2022-08-24T07:46:32.106Z,4.40
2022-08-24T07:49:36.165Z,4.75
2022-08-24T07:52:26.362Z,4.60
2022-08-24T07:55:15.852Z,4.72
2022-08-24T07:58:06.115Z,5.25
2022-08-24T08:00:55.185Z,4.38
2022-08-24T08:03:44.030Z,4.65
2022-08-24T08:06:34.425Z,5.03
2022-08-24T08:09:23.487Z,5.78
2022-08-24T08:12:12.849Z,3.75
2022-08-24T08:15:03.290Z,4.93
2022-08-24T08:17:55.620Z,5.28
2022-08-24T08:20:44.988Z,5.82
2022-08-24T08:23:51.583Z,5.43
2022-08-24T08:26:41.225Z,5.32
2022-08-24T08:29:31.272Z,5.90
2022-08-24T08:32:21.514Z,5.65
2022-08-24T08:35:11.147Z,5.90
2022-08-24T08:38:00.283Z,4.82
2022-08-24T08:40:55.350Z,4.70
2022-08-24T08:43:45.763Z,5.35
2022-08-24T08:46:43.573Z,5.82
2022-08-24T08:49:57.202Z,6.03
2022-08-24T08:53:16.205Z,5.35
2022-08-24T08:56:08.114Z,4.68
2022-08-24T08:59:04.283Z,5.10
2022-08-24T09:01:58.280Z,4.90
2022-08-24T09:05:05.049Z,5.35
2022-08-24T09:07:58.356Z,5.00
2022-08-24T09:10:57.482Z,4.95
2022-08-24T09:13:54.263Z,5.15
2022-08-24T09:16:51.455Z,3.92
2022-08-24T09:19:51.835Z,4.25
2022-08-24T09:22:44.246Z,3.25
2022-08-24T09:25:37.475Z,3.03
2022-08-24T09:28:35.816Z,3.53
2022-08-24T09:31:40.046Z,2.80
2022-08-24T09:34:35.615Z,3.33
2022-08-24T09:37:32.589Z,3.90
2022-08-24T09:40:31.473Z,2.90
2022-08-24T09:43:34.578Z,3.10
2022-08-24T09:46:42.300Z,2.45
2022-08-24T09:49:43.835Z,3.10
2022-08-24T09:52:59.881Z,2.47
2022-08-24T09:56:09.500Z,2.20
2022-08-24T09:59:06.687Z,2.50
2022-08-24T10:01:59.912Z,2.53
2022-08-24T10:04:52.818Z,2.33
2022-08-24T10:07:48.239Z,2.22
2022-08-24T10:10:41.134Z,2.72
2022-08-24T10:13:32.911Z,2.40
2022-08-24T10:16:28.812Z,1.92
2022-08-24T10:19:22.802Z,1.95
2022-08-24T10:22:18.012Z,2.60
2022-08-24T10:25:19.414Z,1.63
2022-08-24T10:28:26.864Z,1.80
2022-08-24T10:31:20.379Z,2.30
2022-08-24T10:34:18.048Z,2.00
2022-08-24T10:37:15.322Z,1.85
2022-08-24T10:40:17.149Z,1.60
2022-08-24T10:43:36.084Z,2.00
2022-08-24T10:46:39.843Z,2.25
2022-08-24T10:49:50.330Z,2.00
2022-08-24T10:52:49.524Z,2.28
2022-08-24T10:55:38.782Z,2.00
2022-08-24T10:58:39.109Z,2.40
2022-08-24T11:01:29.961Z,2.30
2022-08-24T11:04:28.366Z,2.10
2022-08-24T11:07:19.719Z,2.15
2022-08-24T11:10:09.951Z,2.15
2022-08-24T11:13:15.130Z,1.98
2022-08-24T11:16:04.610Z,2.20
2022-08-24T11:18:54.578Z,1.90
2022-08-24T11:21:50.550Z,2.30
2022-08-24T11:24:43.153Z,2.50
2022-08-24T11:27:35.303Z,2.88
2022-08-24T11:30:25.921Z,2.25
2022-08-24T11:33:26.694Z,2.28
2022-08-24T11:36:21.129Z,2.00
2022-08-24T11:39:16.864Z,1.60
2022-08-24T11:42:13.702Z,2.10
2022-08-24T11:45:07.674Z,2.55
2022-08-24T11:48:16.493Z,2.10
2022-08-24T11:51:08.260Z,2.20
2022-08-24T11:54:01.548Z,2.00
2022-08-24T11:56:57.667Z,1.90
2022-08-24T11:59:52.172Z,1.90
2022-08-24T12:02:44.659Z,2.28
2022-08-24T12:05:41.702Z,2.65
2022-08-24T12:08:34.900Z,1.83
2022-08-24T12:11:40.763Z,2.15
2022-08-24T12:14:32.994Z,2.03
2022-08-24T12:17:25.749Z,1.88
2022-08-24T12:20:21.234Z,2.00
2022-08-24T12:23:12.185Z,1.70
2022-08-24T12:26:05.321Z,2.17
2022-08-24T12:28:56.040Z,2.30
2022-08-24T12:31:46.317Z,2.15
2022-08-24T12:34:43.190Z,1.90
2022-08-24T12:37:34.865Z,2.35
2022-08-24T12:40:28.754Z,2.00
2022-08-24T12:43:20.710Z,1.95
2022-08-24T12:46:10.147Z,1.80
2022-08-24T12:49:02.244Z,2.00
2022-08-24T12:51:58.715Z,1.83
2022-08-24T12:55:05.559Z,1.90
2022-08-24T12:57:59.552Z,2.00
2022-08-24T13:00:49.342Z,2.10
2022-08-24T13:03:42.600Z,2.00
2022-08-24T13:06:39.338Z,2.08
2022-08-24T13:09:31.749Z,2.25
2022-08-24T13:12:39.583Z,2.17
2022-08-24T13:15:49.933Z,2.20
2022-08-24T13:18:54.062Z,2.42
2022-08-24T13:21:48.222Z,2.80
2022-08-24T13:24:46.055Z,2.55
2022-08-24T13:27:50.064Z,2.13
2022-08-24T13:31:00.066Z,3.08
2022-08-24T13:33:51.646Z,2.15
2022-08-24T13:36:45.919Z,2.45
2022-08-24T13:39:39.342Z,2.42
2022-08-24T13:42:45.987Z,2.55
2022-08-24T13:45:37.374Z,2.90
2022-08-24T13:48:30.753Z,1.90
2022-08-24T13:51:27.129Z,2.60
2022-08-24T13:54:24.202Z,2.28
2022-08-24T13:57:28.019Z,2.33
2022-08-24T14:00:40.820Z,2.35
2022-08-24T14:03:37.379Z,2.25
2022-08-24T14:06:33.583Z,2.83
2022-08-24T14:09:36.324Z,2.40
2022-08-24T14:12:43.658Z,2.17
2022-08-24T14:15:36.738Z,2.75
2022-08-24T14:18:29.309Z,2.58
2022-08-24T14:21:20.515Z,2.40
2022-08-24T14:24:12.663Z,2.60
2022-08-24T14:27:04.678Z,2.47
2022-08-24T14:29:53.890Z,2.03
2022-08-24T14:32:47.641Z,2.22
2022-08-24T14:35:38.082Z,2.28
2022-08-24T14:38:35.894Z,2.80
2022-08-24T14:41:35.715Z,2.35
2022-08-24T14:44:35.819Z,2.30
2022-08-24T14:47:33.342Z,3.35
2022-08-24T14:50:25.683Z,2.63
2022-08-24T14:53:22.222Z,2.35
2022-08-24T14:56:16.248Z,2.53
2022-08-24T14:59:09.367Z,3.10
2022-08-24T15:02:00.695Z,2.15
2022-08-24T15:04:52.671Z,2.35
2022-08-24T15:07:42.038Z,2.25
2022-08-24T15:10:36.975Z,2.50
2022-08-24T15:13:28.470Z,2.67
2022-08-24T15:16:20.874Z,2.47
2022-08-24T15:19:13.747Z,2.72
2022-08-24T15:22:04.330Z,2.30
2022-08-24T15:24:56.810Z,2.70
2022-08-24T15:27:50.532Z,2.85
2022-08-24T15:30:41.008Z,2.83
2022-08-24T15:33:32.186Z,2.40
2022-08-24T15:36:21.418Z,2.67
2022-08-24T15:39:11.627Z,2.38
2022-08-24T15:42:01.101Z,2.55
2022-08-24T15:44:50.989Z,2.83
2022-08-24T15:47:41.501Z,2.10
2022-08-24T15:50:34.100Z,3.10
2022-08-24T15:53:36.941Z,1.95
2022-08-24T15:56:27.896Z,2.20
2022-08-24T15:59:28.165Z,2.72
2022-08-24T16:02:29.132Z,2.83
2022-08-24T16:05:20.627Z,2.50
2022-08-24T16:08:13.823Z,2.33
2022-08-24T16:11:09.522Z,2.40
2022-08-24T16:13:58.421Z,3.33
2022-08-24T16:16:47.346Z,2.05
2022-08-24T16:19:37.095Z,3.08
2022-08-24T16:22:32.099Z,2.28
2022-08-24T16:25:26.082Z,2.67
2022-08-24T16:28:33.622Z,2.67
2022-08-24T16:31:44.804Z,2.08
2022-08-24T16:34:34.463Z,1.95
2022-08-24T16:37:25.078Z,2.40
2022-08-24T16:40:14.363Z,2.67
2022-08-24T16:43:04.711Z,2.63
2022-08-24T16:45:54.717Z,2.30
2022-08-24T16:48:43.581Z,2.20
2022-08-24T16:51:32.628Z,2.08
2022-08-24T16:54:21.478Z,2.50
2022-08-24T16:57:13.730Z,2.10
2022-08-24T17:00:06.415Z,2.35
2022-08-24T17:02:55.355Z,2.70
2022-08-24T17:05:44.684Z,2.25
2022-08-24T17:08:33.989Z,2.05
2022-08-24T17:11:22.908Z,2.10
2022-08-24T17:14:11.893Z,2.80
2022-08-24T17:17:02.454Z,2.03
2022-08-24T17:19:52.986Z,1.95
2022-08-24T17:22:41.980Z,2.22
2022-08-24T17:25:31.274Z,1.80
2022-08-24T17:28:20.474Z,2.30
2022-08-24T17:31:09.399Z,2.65
2022-08-24T17:34:00.154Z,2.08
2022-08-24T17:36:49.833Z,2.50
2022-08-24T17:39:38.694Z,2.28
2022-08-24T17:42:49.565Z,1.83
2022-08-24T17:45:37.093Z,1.73
2022-08-24T17:48:26.879Z,2.38
2022-08-24T17:51:17.150Z,2.42
2022-08-24T17:54:06.129Z,2.30
2022-08-24T17:56:55.008Z,2.08
2022-08-24T17:59:44.014Z,2.40
2022-08-24T18:02:33.759Z,2.08
2022-08-24T18:05:22.765Z,2.10
2022-08-24T18:08:13.016Z,2.60
2022-08-24T18:11:01.989Z,2.67
2022-08-24T18:13:51.141Z,2.20
2022-08-24T18:16:40.073Z,2.03
2022-08-24T18:19:28.938Z,2.05
2022-08-24T18:22:18.146Z,2.00
2022-08-24T18:25:13.068Z,2.08
2022-08-24T18:28:02.590Z,2.20
2022-08-24T18:30:51.578Z,2.55
2022-08-24T18:33:40.665Z,1.85
2022-08-24T18:36:29.609Z,2.65
2022-08-24T18:39:18.611Z,2.73
2022-08-24T18:42:09.899Z,2.55
2022-08-24T18:45:01.004Z,2.57
2022-08-24T18:47:52.967Z,2.53
2022-08-24T18:50:42.469Z,2.43
2022-08-24T18:53:32.475Z,2.03
2022-08-24T18:56:21.326Z,2.37
2022-08-24T18:59:12.353Z,2.63
2022-08-24T19:02:19.504Z,2.70
2022-08-24T19:05:10.646Z,3.33
2022-08-24T19:07:59.488Z,2.40
2022-08-24T19:10:48.412Z,2.30
2022-08-24T19:13:38.218Z,2.33
2022-08-24T19:16:29.329Z,2.13
2022-08-24T19:19:18.194Z,2.13
2022-08-24T19:22:09.547Z,2.87
2022-08-24T19:24:58.989Z,2.60
2022-08-24T19:27:53.096Z,2.30
2022-08-24T19:30:43.831Z,2.60
2022-08-24T19:33:36.010Z,2.30
2022-08-24T19:36:25.675Z,2.33
2022-08-24T19:39:14.546Z,3.00
2022-08-24T19:42:05.432Z,2.67
2022-08-24T19:45:12.211Z,2.20
2022-08-24T19:48:01.169Z,2.47
2022-08-24T19:50:51.806Z,2.77
2022-08-24T19:53:42.780Z,2.70
2022-08-24T19:56:31.624Z,3.10
2022-08-24T19:59:22.351Z,2.80
2022-08-24T20:02:11.237Z,2.50
2022-08-24T20:05:00.246Z,2.27
2022-08-24T20:07:50.758Z,2.17
2022-08-24T20:10:40.952Z,2.40
2022-08-24T20:13:30.209Z,2.53
2022-08-24T20:16:19.831Z,2.60
2022-08-24T20:19:08.765Z,2.80
2022-08-24T20:21:58.745Z,3.13
2022-08-24T20:24:53.195Z,1.90
2022-08-24T20:27:42.969Z,2.80
2022-08-24T20:30:31.970Z,2.40
2022-08-24T20:33:23.608Z,2.70
2022-08-24T20:36:18.780Z,2.60
2022-08-24T20:39:11.544Z,2.80
2022-08-24T20:42:02.100Z,2.50
2022-08-24T20:44:51.201Z,2.40
2022-08-24T20:47:41.757Z,2.63
2022-08-24T20:50:30.864Z,2.60
2022-08-24T20:53:19.739Z,2.60
2022-08-24T20:56:10.064Z,2.13
2022-08-24T20:59:00.269Z,2.70
2022-08-24T21:01:50.494Z,2.57
2022-08-24T21:04:39.374Z,2.50
2022-08-24T21:07:28.230Z,2.50
2022-08-24T21:10:17.930Z,2.37
2022-08-24T21:13:07.022Z,2.60
2022-08-24T21:15:57.339Z,2.80
2022-08-24T21:18:46.942Z,2.60
2022-08-24T21:21:38.711Z,2.90
2022-08-24T21:24:30.622Z,2.13
2022-08-24T21:27:19.883Z,2.20
2022-08-24T21:30:10.156Z,2.57
2022-08-24T21:33:20.331Z,3.07
2022-08-24T21:36:12.974Z,2.33
2022-08-24T21:39:05.443Z,2.00
2022-08-24T21:41:56.559Z,2.70
2022-08-24T21:44:45.622Z,2.80
2022-08-24T21:47:34.437Z,3.10
2022-08-24T21:50:25.598Z,2.40
2022-08-24T21:53:14.890Z,2.43
2022-08-24T21:56:03.728Z,2.03
2022-08-24T21:58:52.798Z,2.13
2022-08-24T22:01:43.175Z,2.77
2022-08-24T22:04:32.510Z,2.27
2022-08-24T22:07:22.742Z,2.60
2022-08-24T22:10:11.953Z,2.23
2022-08-24T22:13:03.996Z,2.77
2022-08-24T22:15:53.499Z,2.63
2022-08-24T22:18:42.419Z,2.30
2022-08-24T22:21:36.117Z,2.47
2022-08-24T22:24:26.938Z,2.23
2022-08-24T22:27:15.769Z,2.70
2022-08-24T22:30:05.106Z,2.70
2022-08-24T22:32:53.970Z,1.97
2022-08-24T22:35:44.947Z,2.40
2022-08-24T22:38:34.381Z,4.03
2022-08-24T22:41:25.321Z,2.60
2022-08-24T22:44:21.870Z,2.33
2022-08-24T22:47:13.189Z,2.40
2022-08-24T22:50:04.404Z,2.70
2022-08-24T22:52:54.289Z,2.60
2022-08-24T22:55:43.158Z,2.50
2022-08-24T22:58:33.343Z,2.40
2022-08-24T23:01:23.103Z,2.60
2022-08-24T23:04:13.424Z,2.77
2022-08-24T23:07:02.337Z,2.27
2022-08-24T23:09:52.273Z,2.60
2022-08-24T23:12:41.141Z,2.30
2022-08-24T23:15:31.763Z,2.30
2022-08-24T23:18:38.458Z,2.53
2022-08-24T23:21:27.741Z,2.53
2022-08-24T23:24:16.925Z,3.20
2022-08-24T23:27:06.582Z,2.60
2022-08-24T23:29:55.488Z,2.80
2022-08-24T23:32:46.159Z,2.80
2022-08-24T23:35:35.025Z,2.70
2022-08-24T23:38:24.323Z,2.83
2022-08-24T23:41:14.248Z,2.77
2022-08-24T23:44:04.707Z,2.80
2022-08-24T23:46:53.959Z,2.43
2022-08-24T23:49:44.611Z,2.47
2022-08-24T23:52:36.804Z,2.80
2022-08-24T23:55:25.765Z,2.43
2022-08-24T23:58:15.367Z,2.90
